sensor_id;sensor_type;location;lat;lon;timestamp;pressure;altitude;pressure_sealevel;temperature;humidity
5413;BME280;2729;50.056;8.678;2022-07-29T00:01:52;100082.06;;;21.81;74.02
5413;BME280;2729;50.056;8.678;2022-07-29T00:04:19;100092.84;;;21.91;74.29
5413;BME280;2729;50.056;8.678;2022-07-29T00:06:45;100094.66;;;21.91;73.88
5413;BME280;2729;50.056;8.678;2022-07-29T00:09:11;100099.97;;;21.91;79.37
5413;BME280;2729;50.056;8.678;2022-07-29T00:11:37;100121.34;;;21.65;76.10
5413;BME280;2729;50.056;8.678;2022-07-29T00:14:03;100120.56;;;21.76;75.09
5413;BME280;2729;50.056;8.678;2022-07-29T00:16:30;100121.69;;;21.85;67.71
5413;BME280;2729;50.056;8.678;2022-07-29T00:18:55;100119.78;;;21.87;66.69
5413;BME280;2729;50.056;8.678;2022-07-29T00:21:21;100123.63;;;21.82;64.54
5413;BME280;2729;50.056;8.678;2022-07-29T00:23:47;100118.75;;;21.76;64.39
5413;BME280;2729;50.056;8.678;2022-07-29T00:26:13;100122.25;;;21.77;67.33
5413;BME280;2729;50.056;8.678;2022-07-29T00:28:39;100126.50;;;21.79;66.62
5413;BME280;2729;50.056;8.678;2022-07-29T00:31:05;100138.16;;;21.66;66.89
5413;BME280;2729;50.056;8.678;2022-07-29T00:33:31;100140.56;;;21.69;65.32
5413;BME280;2729;50.056;8.678;2022-07-29T00:35:57;100133.78;;;21.65;65.57
5413;BME280;2729;50.056;8.678;2022-07-29T00:38:23;100133.69;;;21.66;70.22
5413;BME280;2729;50.056;8.678;2022-07-29T00:40:49;100130.91;;;21.68;70.99
5413;BME280;2729;50.056;8.678;2022-07-29T00:43:15;100131.59;;;21.59;72.35
5413;BME280;2729;50.056;8.678;2022-07-29T00:45:42;100126.28;;;21.59;67.86
5413;BME280;2729;50.056;8.678;2022-07-29T00:48:08;100122.94;;;21.68;66.98
5413;BME280;2729;50.056;8.678;2022-07-29T00:50:35;100121.97;;;21.69;67.38
5413;BME280;2729;50.056;8.678;2022-07-29T00:53:02;100121.25;;;21.67;62.30
5413;BME280;2729;50.056;8.678;2022-07-29T00:55:29;100126.09;;;21.73;68.20
5413;BME280;2729;50.056;8.678;2022-07-29T00:57:55;100124.47;;;21.83;66.63
5413;BME280;2729;50.056;8.678;2022-07-29T01:00:25;100120.13;;;21.82;65.04
5413;BME280;2729;50.056;8.678;2022-07-29T01:02:51;100103.88;;;21.74;62.05
5413;BME280;2729;50.056;8.678;2022-07-29T01:05:19;100104.13;;;21.71;65.05
5413;BME280;2729;50.056;8.678;2022-07-29T01:07:46;100101.84;;;21.77;65.29
5413;BME280;2729;50.056;8.678;2022-07-29T01:10:15;100099.53;;;21.73;56.81
5413;BME280;2729;50.056;8.678;2022-07-29T01:12:43;100093.81;;;21.90;59.92
5413;BME280;2729;50.056;8.678;2022-07-29T01:15:11;100093.94;;;21.89;60.20
5413;BME280;2729;50.056;8.678;2022-07-29T01:17:47;100093.78;;;21.79;60.06
5413;BME280;2729;50.056;8.678;2022-07-29T01:26:38;100084.28;;;21.64;63.24
5413;BME280;2729;50.056;8.678;2022-07-29T01:29:30;100079.81;;;21.64;60.73
5413;BME280;2729;50.056;8.678;2022-07-29T01:32:07;100077.59;;;21.82;64.18
5413;BME280;2729;50.056;8.678;2022-07-29T01:37:08;100071.38;;;21.94;58.04
5413;BME280;2729;50.056;8.678;2022-07-29T01:39:39;100064.81;;;21.87;54.25
5413;BME280;2729;50.056;8.678;2022-07-29T01:42:15;100062.16;;;21.87;52.74
5413;BME280;2729;50.056;8.678;2022-07-29T01:45:07;100065.09;;;21.95;56.58
5413;BME280;2729;50.056;8.678;2022-07-29T01:47:42;100066.66;;;21.98;54.55
5413;BME280;2729;50.056;8.678;2022-07-29T01:50:11;100065.19;;;21.94;52.96
5413;BME280;2729;50.056;8.678;2022-07-29T01:52:43;100064.13;;;21.96;54.28
5413;BME280;2729;50.056;8.678;2022-07-29T01:55:16;100077.25;;;21.87;56.24
5413;BME280;2729;50.056;8.678;2022-07-29T01:57:45;100071.09;;;21.86;53.28
5413;BME280;2729;50.056;8.678;2022-07-29T02:00:12;100060.13;;;21.91;54.21
5413;BME280;2729;50.056;8.678;2022-07-29T02:02:41;100066.50;;;21.88;54.62
5413;BME280;2729;50.056;8.678;2022-07-29T02:05:10;100066.91;;;21.95;55.78
5413;BME280;2729;50.056;8.678;2022-07-29T02:07:40;100063.59;;;21.80;56.07
5413;BME280;2729;50.056;8.678;2022-07-29T02:10:07;100072.06;;;21.85;55.70
5413;BME280;2729;50.056;8.678;2022-07-29T02:12:35;100069.50;;;21.83;56.71
5413;BME280;2729;50.056;8.678;2022-07-29T02:15:03;100068.50;;;21.73;56.33
5413;BME280;2729;50.056;8.678;2022-07-29T02:17:39;100057.03;;;21.73;61.09
5413;BME280;2729;50.056;8.678;2022-07-29T02:20:08;100063.19;;;21.73;57.11
5413;BME280;2729;50.056;8.678;2022-07-29T02:22:37;100069.81;;;21.68;57.79
5413;BME280;2729;50.056;8.678;2022-07-29T02:25:05;100064.59;;;21.66;57.52
5413;BME280;2729;50.056;8.678;2022-07-29T02:27:33;100063.88;;;21.64;58.60
5413;BME280;2729;50.056;8.678;2022-07-29T02:30:02;100064.38;;;21.69;62.93
5413;BME280;2729;50.056;8.678;2022-07-29T02:32:29;100065.72;;;21.75;62.95
5413;BME280;2729;50.056;8.678;2022-07-29T02:34:58;100063.03;;;21.64;62.03
5413;BME280;2729;50.056;8.678;2022-07-29T02:37:25;100050.94;;;21.60;62.61
5413;BME280;2729;50.056;8.678;2022-07-29T02:39:54;100053.47;;;21.61;61.39
5413;BME280;2729;50.056;8.678;2022-07-29T02:42:21;100049.91;;;21.49;62.20
5413;BME280;2729;50.056;8.678;2022-07-29T02:44:48;100052.34;;;21.53;64.11
5413;BME280;2729;50.056;8.678;2022-07-29T02:47:22;100053.66;;;21.47;63.37
5413;BME280;2729;50.056;8.678;2022-07-29T02:50:09;100049.97;;;21.37;64.07
5413;BME280;2729;50.056;8.678;2022-07-29T02:52:54;100049.81;;;21.51;65.44
5413;BME280;2729;50.056;8.678;2022-07-29T02:55:27;100045.47;;;21.50;68.27
5413;BME280;2729;50.056;8.678;2022-07-29T02:58:03;100042.00;;;21.37;66.55
5413;BME280;2729;50.056;8.678;2022-07-29T03:00:37;100035.50;;;21.41;65.89
5413;BME280;2729;50.056;8.678;2022-07-29T03:03:07;100041.03;;;21.38;100.00
5413;BME280;2729;50.056;8.678;2022-07-29T03:05:34;100061.97;;;20.55;100.00
5413;BME280;2729;50.056;8.678;2022-07-29T03:08:04;100069.97;;;19.63;100.00
5413;BME280;2729;50.056;8.678;2022-07-29T03:10:31;100088.53;;;18.65;100.00
5413;BME280;2729;50.056;8.678;2022-07-29T03:12:57;100085.09;;;18.49;100.00
5413;BME280;2729;50.056;8.678;2022-07-29T03:15:24;100096.69;;;18.32;100.00
5413;BME280;2729;50.056;8.678;2022-07-29T03:17:51;100088.25;;;18.25;100.00
5413;BME280;2729;50.056;8.678;2022-07-29T03:20:18;100100.56;;;18.41;100.00
5413;BME280;2729;50.056;8.678;2022-07-29T03:22:44;100101.41;;;18.41;100.00
5413;BME280;2729;50.056;8.678;2022-07-29T03:25:14;100081.47;;;18.06;100.00
5413;BME280;2729;50.056;8.678;2022-07-29T03:27:40;100078.31;;;17.85;100.00
5413;BME280;2729;50.056;8.678;2022-07-29T03:30:07;100081.03;;;17.83;100.00
5413;BME280;2729;50.056;8.678;2022-07-29T03:32:34;100082.66;;;17.86;100.00
5413;BME280;2729;50.056;8.678;2022-07-29T03:35:00;100090.22;;;17.92;100.00
5413;BME280;2729;50.056;8.678;2022-07-29T03:37:26;100059.34;;;17.78;100.00
5413;BME280;2729;50.056;8.678;2022-07-29T03:39:54;100053.03;;;17.81;100.00
5413;BME280;2729;50.056;8.678;2022-07-29T03:42:24;100052.63;;;17.73;100.00
5413;BME280;2729;50.056;8.678;2022-07-29T03:44:51;100066.22;;;17.65;100.00
5413;BME280;2729;50.056;8.678;2022-07-29T03:47:20;100068.53;;;17.55;100.00
5413;BME280;2729;50.056;8.678;2022-07-29T03:49:50;100072.97;;;17.55;100.00
5413;BME280;2729;50.056;8.678;2022-07-29T03:52:18;100076.31;;;17.43;100.00
5413;BME280;2729;50.056;8.678;2022-07-29T03:54:44;100069.16;;;17.45;100.00
5413;BME280;2729;50.056;8.678;2022-07-29T03:57:11;100069.56;;;17.53;100.00
5413;BME280;2729;50.056;8.678;2022-07-29T03:59:38;100058.41;;;17.48;100.00
5413;BME280;2729;50.056;8.678;2022-07-29T04:02:08;100056.81;;;17.45;100.00
5413;BME280;2729;50.056;8.678;2022-07-29T04:04:35;100068.22;;;17.46;100.00
5413;BME280;2729;50.056;8.678;2022-07-29T04:07:02;100063.19;;;17.41;100.00
5413;BME280;2729;50.056;8.678;2022-07-29T04:09:29;100070.59;;;17.50;100.00
5413;BME280;2729;50.056;8.678;2022-07-29T04:11:55;100064.63;;;17.47;100.00
5413;BME280;2729;50.056;8.678;2022-07-29T04:14:21;100069.25;;;17.43;100.00
5413;BME280;2729;50.056;8.678;2022-07-29T04:16:47;100067.78;;;17.53;100.00
5413;BME280;2729;50.056;8.678;2022-07-29T04:19:13;100062.69;;;17.50;100.00
5413;BME280;2729;50.056;8.678;2022-07-29T04:21:40;100053.72;;;17.53;100.00
5413;BME280;2729;50.056;8.678;2022-07-29T04:24:07;100064.53;;;17.64;100.00
5413;BME280;2729;50.056;8.678;2022-07-29T04:26:34;100053.88;;;17.65;100.00
5413;BME280;2729;50.056;8.678;2022-07-29T04:29:00;100069.28;;;17.89;100.00
5413;BME280;2729;50.056;8.678;2022-07-29T04:31:26;100066.84;;;17.70;100.00
5413;BME280;2729;50.056;8.678;2022-07-29T04:33:52;100067.34;;;17.61;100.00
5413;BME280;2729;50.056;8.678;2022-07-29T04:36:18;100048.28;;;17.72;100.00
5413;BME280;2729;50.056;8.678;2022-07-29T04:38:44;100055.34;;;17.71;100.00
5413;BME280;2729;50.056;8.678;2022-07-29T04:41:10;100052.34;;;17.77;100.00
5413;BME280;2729;50.056;8.678;2022-07-29T04:43:36;100052.84;;;17.84;100.00
5413;BME280;2729;50.056;8.678;2022-07-29T04:46:03;100050.34;;;17.96;100.00
5413;BME280;2729;50.056;8.678;2022-07-29T04:48:29;100053.56;;;18.02;100.00
5413;BME280;2729;50.056;8.678;2022-07-29T04:50:55;100048.22;;;18.17;100.00
5413;BME280;2729;50.056;8.678;2022-07-29T04:53:22;100046.25;;;18.21;100.00
5413;BME280;2729;50.056;8.678;2022-07-29T04:55:48;100050.53;;;18.38;100.00
5413;BME280;2729;50.056;8.678;2022-07-29T04:58:14;100049.88;;;18.34;100.00
5413;BME280;2729;50.056;8.678;2022-07-29T05:00:40;100041.94;;;18.34;100.00
5413;BME280;2729;50.056;8.678;2022-07-29T05:03:06;100041.47;;;18.42;100.00
5413;BME280;2729;50.056;8.678;2022-07-29T05:05:32;100054.78;;;18.54;100.00
5413;BME280;2729;50.056;8.678;2022-07-29T05:07:58;100047.38;;;18.61;100.00
5413;BME280;2729;50.056;8.678;2022-07-29T05:10:24;100051.88;;;18.59;100.00
5413;BME280;2729;50.056;8.678;2022-07-29T05:12:50;100050.47;;;18.82;100.00
5413;BME280;2729;50.056;8.678;2022-07-29T05:15:16;100053.94;;;18.97;100.00
5413;BME280;2729;50.056;8.678;2022-07-29T05:17:43;100053.47;;;18.90;100.00
5413;BME280;2729;50.056;8.678;2022-07-29T05:20:09;100054.22;;;18.92;100.00
5413;BME280;2729;50.056;8.678;2022-07-29T05:22:35;100054.78;;;18.97;100.00
5413;BME280;2729;50.056;8.678;2022-07-29T05:25:02;100066.03;;;19.01;100.00
5413;BME280;2729;50.056;8.678;2022-07-29T05:27:28;100065.25;;;19.13;100.00
5413;BME280;2729;50.056;8.678;2022-07-29T05:29:54;100069.38;;;19.31;100.00
5413;BME280;2729;50.056;8.678;2022-07-29T05:32:20;100061.38;;;19.45;100.00
5413;BME280;2729;50.056;8.678;2022-07-29T05:34:46;100063.09;;;19.46;100.00
5413;BME280;2729;50.056;8.678;2022-07-29T05:37:11;100074.72;;;19.58;90.45
5413;BME280;2729;50.056;8.678;2022-07-29T05:39:39;100068.31;;;19.75;95.87
5413;BME280;2729;50.056;8.678;2022-07-29T05:42:09;100065.16;;;19.82;89.87
5413;BME280;2729;50.056;8.678;2022-07-29T05:44:37;100064.22;;;19.96;83.40
5413;BME280;2729;50.056;8.678;2022-07-29T05:47:03;100056.94;;;20.25;91.56
5413;BME280;2729;50.056;8.678;2022-07-29T05:49:29;100065.34;;;20.32;88.77
5413;BME280;2729;50.056;8.678;2022-07-29T05:51:55;100065.13;;;20.35;84.37
5413;BME280;2729;50.056;8.678;2022-07-29T05:54:21;100058.75;;;20.37;83.22
5413;BME280;2729;50.056;8.678;2022-07-29T05:56:47;100062.19;;;20.52;80.74
5413;BME280;2729;50.056;8.678;2022-07-29T05:59:13;100073.75;;;20.64;79.91
5413;BME280;2729;50.056;8.678;2022-07-29T06:01:38;100069.16;;;20.78;81.57
5413;BME280;2729;50.056;8.678;2022-07-29T06:04:06;100076.59;;;20.99;82.80
5413;BME280;2729;50.056;8.678;2022-07-29T06:06:33;100073.34;;;20.82;80.06
5413;BME280;2729;50.056;8.678;2022-07-29T06:08:59;100066.19;;;20.96;78.42
5413;BME280;2729;50.056;8.678;2022-07-29T06:11:26;100070.88;;;20.92;74.23
5413;BME280;2729;50.056;8.678;2022-07-29T06:13:51;100074.13;;;21.08;77.24
5413;BME280;2729;50.056;8.678;2022-07-29T06:16:19;100068.31;;;21.03;82.63
5413;BME280;2729;50.056;8.678;2022-07-29T06:18:44;100066.06;;;21.10;76.17
5413;BME280;2729;50.056;8.678;2022-07-29T06:21:10;100068.28;;;21.16;74.76
5413;BME280;2729;50.056;8.678;2022-07-29T06:23:37;100068.03;;;21.32;78.41
5413;BME280;2729;50.056;8.678;2022-07-29T06:26:04;100064.84;;;21.39;74.30
5413;BME280;2729;50.056;8.678;2022-07-29T06:28:30;100067.22;;;21.55;73.76
5413;BME280;2729;50.056;8.678;2022-07-29T06:30:56;100070.09;;;21.52;72.51
5413;BME280;2729;50.056;8.678;2022-07-29T06:33:22;100065.50;;;21.54;70.98
5413;BME280;2729;50.056;8.678;2022-07-29T06:35:48;100066.41;;;21.66;70.46
5413;BME280;2729;50.056;8.678;2022-07-29T06:38:15;100069.50;;;21.83;70.07
5413;BME280;2729;50.056;8.678;2022-07-29T06:40:42;100072.78;;;21.87;69.65
5413;BME280;2729;50.056;8.678;2022-07-29T06:43:39;100061.44;;;21.85;67.01
5413;BME280;2729;50.056;8.678;2022-07-29T06:46:10;100066.75;;;21.85;66.11
5413;BME280;2729;50.056;8.678;2022-07-29T06:48:36;100074.47;;;21.88;66.38
5413;BME280;2729;50.056;8.678;2022-07-29T06:51:04;100065.38;;;22.03;65.59
5413;BME280;2729;50.056;8.678;2022-07-29T06:53:30;100074.41;;;22.01;66.00
5413;BME280;2729;50.056;8.678;2022-07-29T06:55:57;100077.88;;;22.14;66.92
5413;BME280;2729;50.056;8.678;2022-07-29T06:58:24;100078.72;;;22.14;65.04
5413;BME280;2729;50.056;8.678;2022-07-29T07:00:55;100083.00;;;22.39;65.29
5413;BME280;2729;50.056;8.678;2022-07-29T07:03:22;100071.53;;;22.50;65.80
5413;BME280;2729;50.056;8.678;2022-07-29T07:05:48;100079.97;;;22.33;63.54
5413;BME280;2729;50.056;8.678;2022-07-29T07:08:14;100094.75;;;22.59;61.85
5413;BME280;2729;50.056;8.678;2022-07-29T07:10:42;100095.97;;;22.55;60.78
5413;BME280;2729;50.056;8.678;2022-07-29T07:13:08;100099.41;;;22.80;62.93
5413;BME280;2729;50.056;8.678;2022-07-29T07:15:36;100098.53;;;22.79;61.68
5413;BME280;2729;50.056;8.678;2022-07-29T07:18:03;100105.66;;;22.78;62.58
5413;BME280;2729;50.056;8.678;2022-07-29T07:20:29;100099.16;;;22.94;58.96
5413;BME280;2729;50.056;8.678;2022-07-29T07:22:55;100095.00;;;22.78;60.02
5413;BME280;2729;50.056;8.678;2022-07-29T07:25:21;100095.53;;;22.84;62.25
5413;BME280;2729;50.056;8.678;2022-07-29T07:27:47;100096.50;;;23.05;59.91
5413;BME280;2729;50.056;8.678;2022-07-29T07:30:13;100099.41;;;23.13;58.73
5413;BME280;2729;50.056;8.678;2022-07-29T07:32:39;100096.00;;;23.11;57.91
5413;BME280;2729;50.056;8.678;2022-07-29T07:35:07;100096.97;;;23.10;56.44
5413;BME280;2729;50.056;8.678;2022-07-29T07:37:33;100101.34;;;23.11;57.07
5413;BME280;2729;50.056;8.678;2022-07-29T07:39:59;100099.34;;;23.35;57.24
5413;BME280;2729;50.056;8.678;2022-07-29T07:42:26;100098.16;;;23.39;55.87
5413;BME280;2729;50.056;8.678;2022-07-29T07:44:52;100100.22;;;23.47;56.53
5413;BME280;2729;50.056;8.678;2022-07-29T07:47:18;100110.28;;;23.55;57.29
5413;BME280;2729;50.056;8.678;2022-07-29T07:49:46;100101.66;;;23.40;55.82
5413;BME280;2729;50.056;8.678;2022-07-29T07:52:14;100101.31;;;23.56;54.92
5413;BME280;2729;50.056;8.678;2022-07-29T07:54:40;100103.09;;;23.66;54.23
5413;BME280;2729;50.056;8.678;2022-07-29T07:57:06;100100.09;;;23.60;55.06
5413;BME280;2729;50.056;8.678;2022-07-29T07:59:32;100098.13;;;23.73;54.67
5413;BME280;2729;50.056;8.678;2022-07-29T08:01:58;100099.59;;;23.98;55.02
5413;BME280;2729;50.056;8.678;2022-07-29T08:04:24;100096.75;;;24.11;55.49
5413;BME280;2729;50.056;8.678;2022-07-29T08:06:50;100095.38;;;24.16;55.52
5413;BME280;2729;50.056;8.678;2022-07-29T08:09:16;100092.06;;;24.24;52.97
5413;BME280;2729;50.056;8.678;2022-07-29T08:11:42;100087.16;;;24.40;57.56
5413;BME280;2729;50.056;8.678;2022-07-29T08:14:08;100092.53;;;24.50;54.63
5413;BME280;2729;50.056;8.678;2022-07-29T08:16:35;100095.59;;;24.45;53.98
5413;BME280;2729;50.056;8.678;2022-07-29T08:19:01;100096.78;;;24.52;53.35
5413;BME280;2729;50.056;8.678;2022-07-29T08:21:27;100099.38;;;24.43;52.53
5413;BME280;2729;50.056;8.678;2022-07-29T08:23:53;100095.03;;;24.42;52.11
5413;BME280;2729;50.056;8.678;2022-07-29T08:26:19;100092.22;;;24.43;51.77
5413;BME280;2729;50.056;8.678;2022-07-29T08:28:48;100095.59;;;24.45;54.93
5413;BME280;2729;50.056;8.678;2022-07-29T08:31:16;100088.25;;;24.58;55.61
5413;BME280;2729;50.056;8.678;2022-07-29T08:33:42;100088.75;;;24.73;53.67
5413;BME280;2729;50.056;8.678;2022-07-29T08:36:08;100089.66;;;24.93;53.98
5413;BME280;2729;50.056;8.678;2022-07-29T08:38:34;100081.66;;;24.93;53.44
5413;BME280;2729;50.056;8.678;2022-07-29T08:41:00;100089.63;;;25.14;54.35
5413;BME280;2729;50.056;8.678;2022-07-29T08:43:27;100092.88;;;25.17;51.31
5413;BME280;2729;50.056;8.678;2022-07-29T08:45:53;100085.81;;;25.07;51.84
5413;BME280;2729;50.056;8.678;2022-07-29T08:48:21;100082.31;;;25.16;52.49
5413;BME280;2729;50.056;8.678;2022-07-29T08:50:50;100079.13;;;25.31;51.83
5413;BME280;2729;50.056;8.678;2022-07-29T08:53:18;100089.13;;;25.29;52.55
5413;BME280;2729;50.056;8.678;2022-07-29T08:55:49;100086.31;;;25.31;51.97
5413;BME280;2729;50.056;8.678;2022-07-29T08:58:18;100088.44;;;25.37;53.50
5413;BME280;2729;50.056;8.678;2022-07-29T09:00:46;100087.84;;;25.24;51.94
5413;BME280;2729;50.056;8.678;2022-07-29T09:03:19;100091.13;;;25.47;52.48
5413;BME280;2729;50.056;8.678;2022-07-29T09:05:46;100089.31;;;25.57;52.72
5413;BME280;2729;50.056;8.678;2022-07-29T09:08:13;100094.56;;;25.68;51.39
5413;BME280;2729;50.056;8.678;2022-07-29T09:10:39;100092.19;;;25.84;51.56
5413;BME280;2729;50.056;8.678;2022-07-29T09:13:05;100092.41;;;25.62;49.97
5413;BME280;2729;50.056;8.678;2022-07-29T09:15:31;100086.53;;;25.68;51.63
5413;BME280;2729;50.056;8.678;2022-07-29T09:17:57;100088.94;;;25.90;50.95
5413;BME280;2729;50.056;8.678;2022-07-29T09:20:25;100084.31;;;26.02;50.78
5413;BME280;2729;50.056;8.678;2022-07-29T09:22:52;100085.97;;;25.74;57.29
5413;BME280;2729;50.056;8.678;2022-07-29T09:25:33;100077.91;;;25.64;52.46
5413;BME280;2729;50.056;8.678;2022-07-29T09:28:13;100085.97;;;25.74;51.93
5413;BME280;2729;50.056;8.678;2022-07-29T09:30:51;100087.41;;;26.07;51.79
5413;BME280;2729;50.056;8.678;2022-07-29T09:33:17;100072.19;;;26.27;50.79
5413;BME280;2729;50.056;8.678;2022-07-29T09:35:44;100074.75;;;26.09;52.72
5413;BME280;2729;50.056;8.678;2022-07-29T09:38:11;100074.31;;;26.33;50.15
5413;BME280;2729;50.056;8.678;2022-07-29T09:40:37;100078.34;;;26.56;50.90
5413;BME280;2729;50.056;8.678;2022-07-29T09:43:11;100069.47;;;26.56;49.24
5413;BME280;2729;50.056;8.678;2022-07-29T09:45:37;100074.53;;;26.59;49.55
5413;BME280;2729;50.056;8.678;2022-07-29T09:48:18;100071.28;;;26.65;48.88
5413;BME280;2729;50.056;8.678;2022-07-29T09:50:45;100073.91;;;26.75;51.27
5413;BME280;2729;50.056;8.678;2022-07-29T09:53:29;100068.84;;;26.72;50.78
5413;BME280;2729;50.056;8.678;2022-07-29T09:55:56;100068.91;;;26.89;49.90
5413;BME280;2729;50.056;8.678;2022-07-29T09:58:22;100067.47;;;27.05;51.90
5413;BME280;2729;50.056;8.678;2022-07-29T10:00:50;100065.78;;;27.04;48.65
5413;BME280;2729;50.056;8.678;2022-07-29T10:03:17;100064.09;;;27.03;48.13
5413;BME280;2729;50.056;8.678;2022-07-29T10:05:44;100062.56;;;26.90;48.94
5413;BME280;2729;50.056;8.678;2022-07-29T10:08:10;100061.00;;;26.98;49.50
5413;BME280;2729;50.056;8.678;2022-07-29T10:10:40;100059.88;;;26.90;49.75
5413;BME280;2729;50.056;8.678;2022-07-29T10:13:14;100062.28;;;26.94;49.62
5413;BME280;2729;50.056;8.678;2022-07-29T10:15:42;100066.97;;;27.19;49.44
5413;BME280;2729;50.056;8.678;2022-07-29T10:18:11;100057.47;;;27.25;47.18
5413;BME280;2729;50.056;8.678;2022-07-29T10:20:38;100055.00;;;27.13;47.37
5413;BME280;2729;50.056;8.678;2022-07-29T10:23:05;100056.50;;;27.43;46.99
5413;BME280;2729;50.056;8.678;2022-07-29T10:25:31;100047.72;;;27.51;45.40
5413;BME280;2729;50.056;8.678;2022-07-29T10:27:57;100054.94;;;27.68;45.80
5413;BME280;2729;50.056;8.678;2022-07-29T10:30:24;100056.00;;;27.58;47.36
5413;BME280;2729;50.056;8.678;2022-07-29T10:32:58;100053.53;;;27.46;46.84
5413;BME280;2729;50.056;8.678;2022-07-29T10:41:02;100042.81;;;28.00;44.35
5413;BME280;2729;50.056;8.678;2022-07-29T10:43:53;100043.34;;;27.50;45.69
5413;BME280;2729;50.056;8.678;2022-07-29T10:46:20;100049.78;;;27.57;46.81
5413;BME280;2729;50.056;8.678;2022-07-29T10:49:05;100052.56;;;27.83;47.01
5413;BME280;2729;50.056;8.678;2022-07-29T10:51:55;100042.28;;;27.96;44.99
5413;BME280;2729;50.056;8.678;2022-07-29T10:57:16;100037.75;;;27.97;44.59
5413;BME280;2729;50.056;8.678;2022-07-29T10:59:46;100038.53;;;27.89;45.16
5413;BME280;2729;50.056;8.678;2022-07-29T11:07:23;100030.19;;;28.36;45.17
5413;BME280;2729;50.056;8.678;2022-07-29T11:15:10;100021.13;;;28.37;44.54
5413;BME280;2729;50.056;8.678;2022-07-29T11:20:45;100020.63;;;28.93;44.58
5413;BME280;2729;50.056;8.678;2022-07-29T11:23:24;100017.41;;;28.90;42.83
5413;BME280;2729;50.056;8.678;2022-07-29T11:26:13;100018.16;;;28.48;43.39
5413;BME280;2729;50.056;8.678;2022-07-29T11:31:42;100019.91;;;28.83;43.35
5413;BME280;2729;50.056;8.678;2022-07-29T11:34:28;100018.44;;;28.63;43.03
5413;BME280;2729;50.056;8.678;2022-07-29T11:39:34;100019.81;;;28.67;43.38
5413;BME280;2729;50.056;8.678;2022-07-29T11:44:58;100020.38;;;29.21;42.36
5413;BME280;2729;50.056;8.678;2022-07-29T11:47:26;100010.78;;;29.18;41.75
5413;BME280;2729;50.056;8.678;2022-07-29T11:49:54;100017.78;;;28.95;42.08
5413;BME280;2729;50.056;8.678;2022-07-29T11:52:20;100012.13;;;29.14;42.49
5413;BME280;2729;50.056;8.678;2022-07-29T11:54:48;100010.03;;;29.50;42.05
5413;BME280;2729;50.056;8.678;2022-07-29T11:57:16;99997.78;;;29.64;40.76
5413;BME280;2729;50.056;8.678;2022-07-29T11:59:45;99998.44;;;29.58;40.60
5413;BME280;2729;50.056;8.678;2022-07-29T12:02:12;99992.50;;;29.30;42.72
5413;BME280;2729;50.056;8.678;2022-07-29T12:04:57;99989.53;;;29.65;41.85
5413;BME280;2729;50.056;8.678;2022-07-29T12:07:31;99986.16;;;29.47;41.48
5413;BME280;2729;50.056;8.678;2022-07-29T12:09:57;99979.44;;;29.75;40.96
5413;BME280;2729;50.056;8.678;2022-07-29T12:12:23;99981.63;;;29.80;40.63
5413;BME280;2729;50.056;8.678;2022-07-29T12:14:50;99975.91;;;29.59;41.18
5413;BME280;2729;50.056;8.678;2022-07-29T12:19:56;99976.22;;;29.39;41.40
5413;BME280;2729;50.056;8.678;2022-07-29T12:22:26;99974.72;;;29.77;41.22
5413;BME280;2729;50.056;8.678;2022-07-29T12:24:53;99971.38;;;29.84;41.57
5413;BME280;2729;50.056;8.678;2022-07-29T12:27:20;99966.50;;;29.71;42.24
5413;BME280;2729;50.056;8.678;2022-07-29T12:29:59;99963.13;;;29.44;40.79
5413;BME280;2729;50.056;8.678;2022-07-29T12:32:35;99974.22;;;29.82;41.48
5413;BME280;2729;50.056;8.678;2022-07-29T12:35:08;99965.81;;;29.85;40.70
5413;BME280;2729;50.056;8.678;2022-07-29T12:37:36;99969.66;;;29.99;40.41
5413;BME280;2729;50.056;8.678;2022-07-29T12:40:04;99960.88;;;30.29;40.17
5413;BME280;2729;50.056;8.678;2022-07-29T12:42:31;99959.06;;;29.89;39.97
5413;BME280;2729;50.056;8.678;2022-07-29T12:44:57;99949.81;;;30.16;40.46
5413;BME280;2729;50.056;8.678;2022-07-29T12:47:23;99951.75;;;30.38;40.02
5413;BME280;2729;50.056;8.678;2022-07-29T12:49:50;99945.03;;;30.34;39.83
5413;BME280;2729;50.056;8.678;2022-07-29T12:52:31;99940.06;;;30.07;41.10
5413;BME280;2729;50.056;8.678;2022-07-29T12:54:58;99941.06;;;29.98;40.43
5413;BME280;2729;50.056;8.678;2022-07-29T12:57:24;99940.91;;;29.91;41.45
5413;BME280;2729;50.056;8.678;2022-07-29T13:00:07;99939.22;;;30.06;40.56
5413;BME280;2729;50.056;8.678;2022-07-29T13:02:34;99937.00;;;30.18;41.21
5413;BME280;2729;50.056;8.678;2022-07-29T13:05:01;99940.41;;;29.96;41.50
5413;BME280;2729;50.056;8.678;2022-07-29T13:07:29;99936.22;;;29.69;42.26
5413;BME280;2729;50.056;8.678;2022-07-29T13:10:16;99944.13;;;29.62;41.72
5413;BME280;2729;50.056;8.678;2022-07-29T13:13:05;99938.25;;;29.51;41.44
5413;BME280;2729;50.056;8.678;2022-07-29T13:15:32;99941.63;;;29.53;41.90
5413;BME280;2729;50.056;8.678;2022-07-29T13:17:58;99941.94;;;29.58;42.02
5413;BME280;2729;50.056;8.678;2022-07-29T13:20:27;99939.94;;;29.52;41.70
5413;BME280;2729;50.056;8.678;2022-07-29T13:23:00;99942.78;;;29.50;40.94
5413;BME280;2729;50.056;8.678;2022-07-29T13:25:31;99947.81;;;30.10;41.55
5413;BME280;2729;50.056;8.678;2022-07-29T13:27:58;99946.81;;;29.79;40.47
5413;BME280;2729;50.056;8.678;2022-07-29T13:30:25;99946.31;;;29.75;40.18
5413;BME280;2729;50.056;8.678;2022-07-29T13:32:51;99938.22;;;29.75;40.57
5413;BME280;2729;50.056;8.678;2022-07-29T13:35:18;99935.03;;;29.71;41.31
5413;BME280;2729;50.056;8.678;2022-07-29T13:37:45;99930.69;;;29.62;40.88
5413;BME280;2729;50.056;8.678;2022-07-29T13:40:11;99930.69;;;29.62;40.72
5413;BME280;2729;50.056;8.678;2022-07-29T13:42:38;99935.22;;;29.54;41.13
5413;BME280;2729;50.056;8.678;2022-07-29T13:45:04;99932.19;;;29.57;41.41
5413;BME280;2729;50.056;8.678;2022-07-29T13:47:32;99928.16;;;29.44;41.45
5413;BME280;2729;50.056;8.678;2022-07-29T13:49:58;99931.69;;;29.53;41.02
5413;BME280;2729;50.056;8.678;2022-07-29T13:52:24;99926.81;;;29.65;40.92
5413;BME280;2729;50.056;8.678;2022-07-29T13:54:50;99929.16;;;29.68;41.09
5413;BME280;2729;50.056;8.678;2022-07-29T13:57:15;99938.75;;;29.70;41.30
5413;BME280;2729;50.056;8.678;2022-07-29T13:59:42;99938.75;;;29.70;41.74